PASY METAR and TAF weather

Enter ICAO airport designator
Station Type Date Time Source
PASY METAR 2021/03/01 21:58 UTC NOAA

PASY 012158Z 27031G40KT 7SM VCSH FEW010 SCT020 00/M04 A2962 RMK AO2A PK WND 28044/2056 SLP034 T10041038 RVRNO PNO FZRANO $


Station Type Date Time Source
PASY Decoded METAR 2021/03/01 21:58 UTC NOAA

SHEMYA EARECKSON AS, AK, United States (PASY) 52-43N 174-07E
Mar 01, 2021 - 04:58 PM EST / 2021.03.01 2158 UTC
Wind: from the W (270 degrees) at 36 MPH (31 KT) gusting to 46 MPH (40 KT):0
Visibility: 7 mile(s):0
Sky conditions: partly cloudy
Weather: showers in the vicinity
Temperature: 31.3 F (-0.4 C)
Windchill: 15 F (-9 C):1
Dew Point: 25.2 F (-3.8 C)
Relative Humidity: 77%
Pressure (altimeter): 29.62 in. Hg (1003 hPa)
ob: PASY 012158Z 27031G40KT 7SM VCSH FEW010 SCT020 00/M04 A2962 RMK AO2A PK WND 28044/2056 SLP034 T10041038 RVRNO PNO FZRANO
cycle: 22

Station Type Date Time Source
PASY TAF 2021/03/01 19:57 UTC NOAA

TAF
AMD PASY 011930Z 0119/0220 27030G40KT 9999 SCT015 BKN030 620308 530003 QNH2945INS
TEMPO 0119/0124 27035G50KT 6000 -SN BKN020 530003
BECMG 0123/0124 28020G35KT 9999 SCT020 BKN050 510003 QNH2960INS
BECMG 0205/0206 30015G25KT 9999 BKN050 QNH2970INS TX03/0201Z TNM01/0214Z

Example: see airport list